Time;durP1;ratioP1;P1;durP2;ratioP2;P2;SDS_P1;SDS_P2;PMS_P1;PMS_P2;Temp;Humidity;BMP_temperature;BMP_pressure;BME280_temperature;BME280_humidity;BME280_pressure;Samples;Min_cycle;Max_cycle;Signal;HPM_P1;HPM_P2
2022/01/24 00:00:09;;;;;;;33.60;12.83;;;;;;;-4.24;90.70;146621.59;1693748;82;21056;-57
2022/01/24 00:02:37;;;;;;;24.20;10.23;;;;;;;-4.24;91.36;146621.59;1675954;85;21150;-57
2022/01/24 00:05:05;;;;;;;31.43;12.47;;;;;;;-4.19;92.41;146634.41;1675455;83;21486;-58
2022/01/24 00:07:32;;;;;;;29.12;10.95;;;;;;;-4.19;92.95;146634.41;1676050;84;21542;-58
2022/01/24 00:10:03;;;;;;;31.87;11.28;;;;;;;-4.22;93.69;146626.72;1732628;81;21578;-58
2022/01/24 00:17:31;;;;;;;32.53;11.75;;;;;;;-4.32;98.62;146603.61;1738756;82;21355;-58
2022/01/24 00:28:10;;;;;;;32.25;11.63;;;;;;;-4.31;100.00;146604.92;1736241;82;21883;-58
2022/01/24 00:30:39;;;;;;;26.77;10.80;;;;;;;-4.32;100.00;146603.61;1731786;82;21128;-58
2022/01/24 00:33:06;;;;;;;27.67;11.47;;;;;;;-4.28;100.00;146611.34;1736203;80;21643;-57
2022/01/24 00:35:33;;;;;;;32.00;13.00;;;;;;;-4.26;100.00;146616.47;1728638;82;21036;-58
2022/01/24 00:38:01;;;;;;;28.32;12.47;;;;;;;-4.25;100.00;146619.03;1729500;82;20933;-57
2022/01/24 00:40:33;;;;;;;32.00;11.50;;;;;;;-4.24;99.56;146621.59;1731928;82;21097;-58
2022/01/24 00:42:59;;;;;;;26.90;9.47;;;;;;;-4.23;99.26;146625.41;1732974;82;21064;-57
2022/01/24 00:55:59;;;;;;;27.30;10.48;;;;;;;-4.09;99.16;146660.08;1732245;82;21055;-58
2022/01/24 00:58:26;;;;;;;30.85;11.97;;;;;;;-4.08;98.93;146662.64;1717943;80;21087;-58
2022/01/24 01:00:52;;;;;;;27.97;10.57;;;;;;;-4.07;99.15;146663.91;1759590;80;21095;-58
2022/01/24 01:03:19;;;;;;;31.07;13.40;;;;;;;-4.06;99.04;146667.78;1743798;80;21087;-58
2022/01/24 01:06:06;;;;;;;26.43;10.87;;;;;;;-4.07;99.05;146663.91;1729240;80;21128;-57
2022/01/24 01:19:36;;;;;;;32.35;10.68;;;;;;;-4.09;99.62;146660.08;1733902;80;21737;-59
2022/01/24 01:22:03;;;;;;;31.30;12.23;;;;;;;-4.10;99.31;146657.47;1696820;83;21081;-58
2022/01/24 01:24:34;;;;;;;34.70;13.83;;;;;;;-4.10;99.14;146657.47;1752166;80;21044;-58
2022/01/24 01:27:07;;;;;;;33.27;13.13;;;;;;;-4.08;99.06;146662.64;1727896;80;21495;-58
2022/01/24 01:29:44;;;;;;;28.03;11.20;;;;;;;-4.10;98.78;146657.47;1740130;80;21100;-60
2022/01/24 01:32:24;;;;;;;27.53;12.90;;;;;;;-4.08;98.69;146662.64;1733596;80;21249;-57
2022/01/24 01:35:00;;;;;;;32.42;14.25;;;;;;;-4.09;98.38;146658.78;1710231;82;22233;-58
2022/01/24 01:37:42;;;;;;;26.85;11.60;;;;;;;-4.09;98.20;146660.08;1674886;84;21132;-57
2022/01/24 01:53:31;;;;;;;28.07;11.70;;;;;;;-4.10;97.82;146657.47;1714264;82;20207;-59
2022/01/24 01:55:44;;;;;;;30.43;10.30;;;;;;;-4.09;97.70;146658.78;1738793;80;21006;-58
2022/01/24 01:58:14;;;;;;;37.80;13.20;;;;;;;-4.11;97.55;146654.91;1746065;80;21872;-58
2022/01/24 02:00:45;;;;;;;39.45;14.98;;;;;;;-4.13;97.61;146649.78;1756428;80;21493;-58
2022/01/24 02:03:12;;;;;;;37.00;11.88;;;;;;;-4.12;97.77;146651.09;1744147;80;21100;-58
2022/01/24 02:05:39;;;;;;;38.83;13.70;;;;;;;-4.14;97.84;146645.97;1752816;80;20946;-58
2022/01/24 02:08:06;;;;;;;48.78;18.95;;;;;;;-4.14;97.92;146647.22;1749482;80;21023;-58
2022/01/24 02:10:35;;;;;;;48.75;16.65;;;;;;;-4.11;97.88;146653.66;1760185;80;22149;-58
2022/01/24 02:13:01;;;;;;;48.78;16.73;;;;;;;-4.10;97.93;146657.47;1749366;80;21112;-57
2022/01/24 02:15:41;;;;;;;53.92;18.57;;;;;;;-4.10;98.45;146657.47;1746270;80;21635;-58
2022/01/24 02:23:39;;;;;;;58.13;19.17;;;;;;;-4.03;99.25;146674.16;1750379;80;21582;-57
2022/01/24 02:26:09;;;;;;;46.83;16.00;;;;;;;-3.98;99.56;146685.72;1757873;80;21466;-57
2022/01/24 02:29:01;;;;;;;50.60;18.50;;;;;;;-3.97;99.42;146688.28;1736286;80;21014;-59
2022/01/24 02:31:39;;;;;;;54.70;15.55;;;;;;;-3.96;99.56;146690.84;1741064;80;21029;-58
2022/01/24 02:33:57;;;;;;;48.98;18.25;;;;;;;-3.95;100.00;146694.70;1738672;80;21008;-57
2022/01/24 02:36:24;;;;;;;47.67;16.12;;;;;;;-3.92;100.00;146701.09;1736246;80;21588;-59
2022/01/24 02:39:28;;;;;;;44.10;16.02;;;;;;;-3.89;100.00;146708.78;1739223;80;21068;-59
2022/01/24 02:49:49;;;;;;;48.25;17.95;;;;;;;-3.84;98.37;146721.64;1714379;82;22003;-58
2022/01/24 02:52:17;;;;;;;40.83;15.17;;;;;;;-3.82;98.26;146726.78;1717326;82;21480;-59
2022/01/24 02:54:44;;;;;;;34.38;12.15;;;;;;;-3.79;97.99;146734.47;1718479;82;21007;-58
2022/01/24 02:57:11;;;;;;;33.80;12.78;;;;;;;-3.78;97.74;146737.03;1709926;82;20951;-58
2022/01/24 02:59:38;;;;;;;39.42;16.20;;;;;;;-3.76;97.47;146740.84;1720251;82;21118;-58
2022/01/24 03:02:05;;;;;;;35.63;14.05;;;;;;;-3.74;97.21;146747.28;1712734;82;21542;-59
2022/01/24 03:04:32;;;;;;;38.55;14.35;;;;;;;-3.72;96.82;146749.84;1712671;82;21111;-58
2022/01/24 03:06:59;;;;;;;32.28;13.15;;;;;;;-3.70;96.32;146754.97;1714301;82;21505;-58
2022/01/24 03:09:26;;;;;;;33.23;12.07;;;;;;;-3.71;95.78;146753.72;1707550;82;21538;-58
2022/01/24 03:14:22;;;;;;;30.77;10.43;;;;;;;-3.67;95.08;146762.66;1722272;82;21833;-58
2022/01/24 03:16:49;;;;;;;35.40;13.03;;;;;;;-3.67;94.78;146762.66;1705864;82;21461;-58
2022/01/24 03:19:16;;;;;;;29.92;10.53;;;;;;;-3.66;94.33;146765.22;1711406;82;21043;-57
2022/01/24 03:21:43;;;;;;;40.52;13.50;;;;;;;-3.64;94.33;146770.41;1713031;82;21043;-58
2022/01/24 03:24:13;;;;;;;26.50;9.60;;;;;;;-3.63;94.23;146772.97;1710075;82;21050;-58
2022/01/24 03:26:40;;;;;;;31.10;10.90;;;;;;;-3.64;93.82;146770.41;1720784;82;21568;-58
2022/01/24 03:29:07;;;;;;;32.95;12.40;;;;;;;-3.66;93.68;146765.22;1711682;82;21689;-59
2022/01/24 03:31:35;;;;;;;38.10;14.80;;;;;;;-3.67;93.67;146762.66;1723758;82;21114;-58
2022/01/24 03:34:01;;;;;;;31.52;13.25;;;;;;;-3.68;93.90;146760.09;1720686;82;21026;-58
2022/01/24 03:36:29;;;;;;;28.95;11.53;;;;;;;-3.69;94.37;146757.53;1713350;82;21065;-58
2022/01/24 03:38:56;;;;;;;23.77;9.27;;;;;;;-3.69;94.36;146758.84;1712219;82;21030;-58
2022/01/24 03:41:22;;;;;;;34.18;12.78;;;;;;;-3.69;94.09;146757.53;1708310;82;21142;-58
2022/01/24 03:43:49;;;;;;;26.45;10.20;;;;;;;-3.68;94.11;146760.09;1700437;82;21588;-58
2022/01/24 03:48:47;;;;;;;31.12;12.13;;;;;;;-3.65;92.21;146767.78;1699220;82;21074;-58
2022/01/24 03:51:12;;;;;;;29.63;11.80;;;;;;;-3.66;91.85;146766.53;1714134;82;21555;-58
2022/01/24 03:53:40;;;;;;;25.92;9.80;;;;;;;-3.65;91.82;146767.78;1709790;82;21047;-58
2022/01/24 03:56:06;;;;;;;34.92;13.45;;;;;;;-3.63;91.52;146772.97;1704547;82;21050;-58
2022/01/24 03:58:34;;;;;;;30.40;11.00;;;;;;;-3.63;91.38;146772.97;1723322;82;21456;-58
2022/01/24 04:01:04;;;;;;;31.40;12.70;;;;;;;-3.62;91.23;146775.53;1721851;82;21062;-57
2022/01/24 04:03:32;;;;;;;28.95;12.93;;;;;;;-3.62;90.65;146775.53;1717510;83;21099;-59
2022/01/24 04:05:58;;;;;;;25.62;10.00;;;;;;;-3.62;90.46;146775.53;1715579;82;21040;-58
2022/01/24 04:08:25;;;;;;;33.25;12.20;;;;;;;-3.63;90.14;146774.22;1702088;82;21633;-57
2022/01/24 04:10:55;;;;;;;23.83;9.70;;;;;;;-3.63;90.32;146772.97;1704448;82;20943;-58
2022/01/24 04:16:22;;;;;;;25.85;11.93;;;;;;;-3.62;90.30;146775.53;1708907;82;21142;-59
2022/01/24 04:18:46;;;;;;;26.25;10.28;;;;;;;-3.62;89.94;146775.53;1713928;82;21040;-59
2022/01/24 04:21:22;;;;;;;26.90;11.18;;;;;;;-3.63;89.99;146772.97;1710783;82;20986;-59
2022/01/24 04:23:57;;;;;;;29.12;10.95;;;;;;;-3.64;89.96;146770.41;1704276;82;20963;-59
2022/01/24 04:26:17;;;;;;;27.73;10.82;;;;;;;-3.65;90.11;146769.09;1715157;82;21121;-57
2022/01/24 04:28:44;;;;;;;26.70;10.98;;;;;;;-3.65;90.23;146767.78;1705488;82;21144;-57
2022/01/24 04:31:11;;;;;;;34.60;9.93;;;;;;;-3.64;90.33;146770.41;1719077;82;21546;-58
2022/01/24 04:33:38;;;;;;;31.45;10.90;;;;;;;-3.65;90.03;146767.78;1713183;82;21092;-59
2022/01/24 04:36:06;;;;;;;24.05;9.48;;;;;;;-3.67;90.18;146762.66;1713154;82;20987;-58
2022/01/24 04:38:33;;;;;;;25.62;11.10;;;;;;;-3.65;90.24;146769.09;1707402;82;21014;-58
2022/01/24 04:41:05;;;;;;;29.15;11.68;;;;;;;-3.65;89.66;146767.78;1714459;82;23828;-59
2022/01/24 04:43:54;;;;;;;29.67;12.53;;;;;;;-3.65;89.84;146767.78;1708308;82;21157;-59
2022/01/24 04:46:31;;;;;;;27.52;9.95;;;;;;;-3.65;89.69;146767.78;1712754;82;21141;-58
2022/01/24 04:51:38;;;;;;;30.68;12.28;;;;;;;-3.66;89.45;146765.22;1718491;82;21079;-58
2022/01/24 04:56:40;;;;;;;28.15;9.93;;;;;;;-3.67;89.51;146763.97;1722400;82;21027;-59
2022/01/24 04:59:09;;;;;;;31.75;11.18;;;;;;;-3.68;89.24;146760.09;1718064;82;21085;-58
2022/01/24 05:01:35;;;;;;;24.43;8.83;;;;;;;-3.67;89.67;146762.66;1709328;82;21101;-58
2022/01/24 05:04:02;;;;;;;26.80;11.05;;;;;;;-3.69;89.20;146758.84;1720727;81;21068;-57
2022/01/24 05:06:29;;;;;;;24.35;10.60;;;;;;;-3.70;89.37;146754.97;1709849;82;21544;-58
2022/01/24 05:08:57;;;;;;;26.93;11.10;;;;;;;-3.72;89.43;146749.84;1722108;82;21011;-58
2022/01/24 05:11:37;;;;;;;26.62;8.30;;;;;;;-3.71;89.52;146753.72;1722105;82;21116;-57
2022/01/24 05:24:42;;;;;;;21.45;8.30;;;;;;;-3.87;88.74;146713.91;1724933;82;20206;-58
2022/01/24 05:27:10;;;;;;;28.83;8.95;;;;;;;-3.88;88.24;146711.34;1708534;82;21133;-58
2022/01/24 05:29:37;;;;;;;18.20;8.45;;;;;;;-3.89;88.41;146708.78;1730099;82;21034;-59
2022/01/24 05:32:07;;;;;;;27.07;11.33;;;;;;;-3.90;88.46;146706.22;1721425;81;21103;-59
2022/01/24 05:34:35;;;;;;;28.47;10.82;;;;;;;-3.89;88.39;146708.78;1699212;83;21050;-58
2022/01/24 05:37:02;;;;;;;21.65;10.30;;;;;;;-3.91;88.03;146703.66;1681253;83;21594;-58
2022/01/24 05:39:29;;;;;;;19.20;8.57;;;;;;;-3.93;87.85;146698.53;1723337;82;21110;-58
2022/01/24 05:41:55;;;;;;;22.17;9.03;;;;;;;-3.95;87.77;146694.70;1721507;82;21054;-58
2022/01/24 05:44:22;;;;;;;25.50;10.90;;;;;;;-3.95;87.97;146694.70;1720277;82;21306;-59
2022/01/24 05:46:49;;;;;;;23.30;10.00;;;;;;;-3.94;88.09;146695.97;1713761;82;20999;-59
2022/01/24 05:49:16;;;;;;;25.95;10.53;;;;;;;-3.96;87.85;146690.84;1716818;82;21114;-59
2022/01/24 05:51:44;;;;;;;23.10;8.83;;;;;;;-3.97;87.81;146689.58;1705766;82;21044;-59
2022/01/24 05:54:11;;;;;;;16.00;7.17;;;;;;;-3.99;87.62;146683.16;1698295;82;21081;-60
2022/01/24 05:56:38;;;;;;;24.00;9.53;;;;;;;-4.03;87.33;146675.47;1710500;82;21926;-58
2022/01/24 05:59:04;;;;;;;21.57;8.87;;;;;;;-4.05;87.44;146670.34;1719284;82;21046;-57
2022/01/24 06:01:31;;;;;;;26.97;11.10;;;;;;;-4.04;87.44;146671.59;1705757;82;21062;-58
2022/01/24 06:03:58;;;;;;;24.27;9.10;;;;;;;-4.03;87.40;146675.47;1709116;82;21060;-58
2022/01/24 06:06:25;;;;;;;21.73;8.27;;;;;;;-4.03;87.44;146675.47;1698168;82;21627;-58
2022/01/24 06:08:52;;;;;;;25.33;9.30;;;;;;;-4.01;87.13;146678.03;1718161;82;21156;-59
2022/01/24 06:11:20;;;;;;;19.65;8.03;;;;;;;-4.01;87.05;146678.03;1721822;82;21607;-59
2022/01/24 06:13:50;;;;;;;19.52;6.58;;;;;;;-3.99;87.15;146683.16;1712571;82;21056;-60
2022/01/24 06:16:16;;;;;;;23.30;10.10;;;;;;;-3.99;86.88;146683.16;1715687;82;21129;-59
2022/01/24 06:18:43;;;;;;;23.65;9.20;;;;;;;-3.99;86.92;146683.16;1705155;82;21133;-59
2022/01/24 06:21:10;;;;;;;19.27;8.33;;;;;;;-3.99;87.21;146683.16;1693897;83;21571;-59
2022/01/24 06:23:37;;;;;;;21.95;8.58;;;;;;;-4.03;87.12;146675.47;1664933;84;21156;-59
2022/01/24 06:26:04;;;;;;;24.65;8.55;;;;;;;-4.02;87.13;146676.72;1659994;85;21030;-58
2022/01/24 06:28:30;;;;;;;23.00;9.13;;;;;;;-3.99;87.11;146683.16;1673373;84;21527;-59
2022/01/24 06:30:58;;;;;;;24.23;9.53;;;;;;;-3.98;87.00;146685.72;1677075;83;21028;-59
2022/01/24 06:33:25;;;;;;;20.08;8.93;;;;;;;-3.98;87.03;146685.72;1675756;84;21817;-58
2022/01/24 06:35:52;;;;;;;23.38;8.03;;;;;;;-3.97;86.96;146688.28;1678378;84;21040;-58
2022/01/24 06:38:18;;;;;;;26.45;9.48;;;;;;;-3.97;86.68;146689.58;1673909;85;21139;-59
2022/01/24 06:40:45;;;;;;;19.37;6.95;;;;;;;-3.98;86.30;146687.02;1650378;84;21091;-59
2022/01/24 06:43:13;;;;;;;22.95;9.05;;;;;;;-3.97;86.58;146689.58;1674005;83;21082;-59
2022/01/24 06:45:40;;;;;;;19.37;7.83;;;;;;;-3.95;86.49;146694.70;1678539;83;21123;-58
2022/01/24 06:48:07;;;;;;;24.18;8.75;;;;;;;-3.92;86.38;146701.09;1681377;83;21073;-58
2022/01/24 06:50:35;;;;;;;19.07;8.18;;;;;;;-3.92;86.05;146701.09;1671468;83;21586;-59
2022/01/24 06:53:02;;;;;;;24.98;8.68;;;;;;;-3.90;86.35;146706.22;1680571;83;21053;-58
2022/01/24 06:55:29;;;;;;;20.82;8.33;;;;;;;-3.91;86.52;146703.66;1671858;83;21708;-59
2022/01/24 06:57:57;;;;;;;26.87;10.63;;;;;;;-3.90;86.68;146706.22;1669121;83;21950;-59
2022/01/24 07:00:26;;;;;;;26.17;10.98;;;;;;;-3.86;87.14;146715.22;1674355;83;21073;-59
2022/01/24 07:02:54;;;;;;;20.55;8.35;;;;;;;-3.79;86.83;146733.16;1681216;83;21106;-58
2022/01/24 07:05:21;;;;;;;22.55;9.58;;;;;;;-3.76;86.62;146742.16;1672487;83;21763;-59
2022/01/24 07:07:48;;;;;;;24.80;8.20;;;;;;;-3.71;86.80;146752.41;1678763;83;21045;-59
2022/01/24 07:10:17;;;;;;;16.42;7.20;;;;;;;-3.67;86.72;146762.66;1678638;83;21820;-58
2022/01/24 07:12:47;;;;;;;17.67;8.70;;;;;;;-3.63;86.83;146772.97;1671928;83;21074;-59
2022/01/24 07:15:16;;;;;;;20.20;7.15;;;;;;;-3.62;86.21;146776.78;1671845;83;21141;-59
2022/01/24 07:20:29;;;;;;;17.17;6.63;;;;;;;-3.66;85.75;146766.53;1670299;82;21233;-59
2022/01/24 07:22:56;;;;;;;17.03;8.07;;;;;;;-3.65;85.62;146767.78;1691905;82;21116;-59
2022/01/24 07:25:23;;;;;;;16.30;7.03;;;;;;;-3.63;84.46;146772.97;1716490;82;21176;-60
2022/01/24 07:27:49;;;;;;;23.50;7.45;;;;;;;-3.62;84.03;146775.53;1707099;82;21088;-59
2022/01/24 07:30:16;;;;;;;12.78;5.60;;;;;;;-3.62;83.30;146775.53;1705001;82;21628;-58
2022/01/24 07:32:43;;;;;;;14.70;6.07;;;;;;;-3.61;83.19;146779.34;1706415;81;21102;-60
2022/01/24 07:35:10;;;;;;;21.33;6.87;;;;;;;-3.57;82.96;146787.03;1679540;83;21149;-59
2022/01/24 07:37:37;;;;;;;22.75;7.55;;;;;;;-3.54;82.77;146796.03;1676326;82;21650;-59
2022/01/24 07:40:07;;;;;;;14.75;6.00;;;;;;;-3.46;83.09;146815.30;1646828;85;21097;-59
2022/01/24 07:42:58;;;;;;;15.10;5.65;;;;;;;-3.43;82.51;146821.69;1713352;82;21151;-59
2022/01/24 07:45:25;;;;;;;13.03;4.95;;;;;;;-3.42;81.59;146824.30;1714019;81;21525;-59
2022/01/24 07:47:51;;;;;;;12.00;5.62;;;;;;;-3.45;80.84;146817.86;1712498;81;21889;-58
2022/01/24 07:50:24;;;;;;;13.85;6.25;;;;;;;-3.49;80.78;146808.86;1700227;81;21078;-58
2022/01/24 07:52:51;;;;;;;20.00;6.62;;;;;;;-3.49;80.93;146808.86;1711428;82;21017;-61
2022/01/24 07:55:18;;;;;;;10.78;4.83;;;;;;;-3.49;80.76;146807.59;1715155;81;22476;-59
2022/01/24 07:57:45;;;;;;;23.27;7.35;;;;;;;-3.49;81.09;146808.86;1712055;81;21086;-58
2022/01/24 08:00:13;;;;;;;29.13;6.47;;;;;;;-3.50;80.64;146806.30;1718975;81;21768;-60
2022/01/24 08:02:41;;;;;;;14.28;5.17;;;;;;;-3.48;81.31;146810.17;1716212;81;21083;-59
2022/01/24 08:05:10;;;;;;;16.73;6.22;;;;;;;-3.46;81.15;146816.55;1716889;81;21502;-58
2022/01/24 08:07:37;;;;;;;17.90;6.15;;;;;;;-3.43;81.03;146822.98;1719549;81;21112;-59
2022/01/24 08:10:06;;;;;;;10.15;4.70;;;;;;;-3.37;80.85;146837.11;1718373;81;21076;-61
2022/01/24 08:12:34;;;;;;;12.70;5.33;;;;;;;-3.38;80.22;146834.55;1716128;81;21836;-60
2022/01/24 08:15:02;;;;;;;12.70;6.03;;;;;;;-3.41;80.24;146826.86;1719587;81;21068;-60
2022/01/24 08:17:30;;;;;;;12.37;5.90;;;;;;;-3.42;80.19;146824.30;1701436;81;22766;-59
2022/01/24 08:19:57;;;;;;;14.40;5.72;;;;;;;-3.42;80.71;146824.30;1712956;81;21072;-59
2022/01/24 08:22:25;;;;;;;15.15;6.58;;;;;;;-3.39;81.96;146831.98;1717403;81;21095;-59
2022/01/24 08:24:55;;;;;;;21.10;6.92;;;;;;;-3.34;81.48;146844.81;1718215;81;21827;-59
2022/01/24 08:27:25;;;;;;;22.42;6.62;;;;;;;-3.31;81.02;146853.81;1719432;81;21016;-59
2022/01/24 08:29:51;;;;;;;12.95;4.97;;;;;;;-3.31;80.59;146852.50;1718342;81;21149;-60
2022/01/24 08:32:18;;;;;;;16.60;4.75;;;;;;;-3.36;79.49;146840.94;1708988;81;21956;-59
2022/01/24 08:34:45;;;;;;;11.78;5.47;;;;;;;-3.39;79.38;146831.98;1720066;81;21068;-61
2022/01/24 08:37:13;;;;;;;16.23;4.95;;;;;;;-3.38;79.17;146834.55;1717611;81;21454;-58
2022/01/24 08:39:40;;;;;;;12.13;5.83;;;;;;;-3.40;79.15;146829.42;1720583;81;21862;-59
2022/01/24 08:42:24;;;;;;;16.77;6.20;;;;;;;-3.40;79.44;146829.42;1713566;81;21022;-60
2022/01/24 08:47:27;;;;;;;15.72;6.58;;;;;;;-3.31;80.16;146853.81;1684464;83;21088;-60
2022/01/24 08:49:54;;;;;;;23.85;6.28;;;;;;;-3.29;79.21;146857.63;1686740;83;21160;-59
2022/01/24 08:52:21;;;;;;;14.13;5.80;;;;;;;-3.27;78.76;146861.50;1682122;83;21128;-59
2022/01/24 08:54:49;;;;;;;14.87;4.55;;;;;;;-3.28;78.94;146860.19;1681298;84;21060;-60
2022/01/24 08:57:15;;;;;;;17.30;6.22;;;;;;;-3.27;78.76;146862.75;1680367;83;21121;-58
2022/01/24 08:59:42;;;;;;;22.45;6.42;;;;;;;-3.25;79.03;146866.62;1684979;83;21064;-60
2022/01/24 09:02:09;;;;;;;15.13;5.92;;;;;;;-3.20;79.47;146880.77;1682751;83;21119;-59
2022/01/24 09:04:36;;;;;;;12.88;5.97;;;;;;;-3.13;78.61;146896.14;1683733;83;21109;-59
2022/01/24 09:07:05;;;;;;;17.48;7.28;;;;;;;-3.10;78.31;146903.84;1683879;83;21352;-59
2022/01/24 09:09:34;;;;;;;10.20;4.65;;;;;;;-3.06;78.04;146914.09;1677510;83;21062;-59
2022/01/24 09:12:03;;;;;;;19.37;7.58;;;;;;;-3.07;77.59;146911.53;1681822;83;21582;-59
2022/01/24 09:14:31;;;;;;;17.10;6.75;;;;;;;-3.00;78.08;146928.23;1685469;83;21618;-58
2022/01/24 09:16:58;;;;;;;20.70;7.65;;;;;;;-2.92;78.05;146948.75;1682369;83;21546;-58
2022/01/24 09:19:25;;;;;;;14.20;5.70;;;;;;;-2.83;78.07;146970.59;1679652;83;21929;-60
2022/01/24 09:21:52;;;;;;;15.13;5.90;;;;;;;-2.77;76.96;146985.98;1669938;83;21104;-59
2022/01/24 09:24:18;;;;;;;13.75;5.62;;;;;;;-2.76;76.98;146989.86;1674336;83;21075;-59
2022/01/24 09:26:45;;;;;;;32.73;6.05;;;;;;;-2.74;76.83;146993.72;1681510;83;21848;-59
2022/01/24 09:29:12;;;;;;;14.80;5.95;;;;;;;-2.77;78.58;146985.98;1680890;83;21125;-60
2022/01/24 09:31:40;;;;;;;16.05;6.67;;;;;;;-2.79;79.41;146982.16;1683574;83;21374;-60
2022/01/24 09:34:07;;;;;;;15.95;5.47;;;;;;;-2.75;81.48;146991.16;1627931;85;21124;-60
2022/01/24 09:36:35;;;;;;;13.58;5.95;;;;;;;-2.81;82.06;146977.03;1684204;83;21105;-62
2022/01/24 09:39:02;;;;;;;13.10;4.90;;;;;;;-2.83;82.51;146971.91;1684047;83;21337;-58
2022/01/24 09:41:30;;;;;;;22.00;7.33;;;;;;;-2.83;81.50;146971.91;1681678;83;21535;-61
2022/01/24 09:43:57;;;;;;;15.32;6.78;;;;;;;-2.89;83.52;146957.77;1686914;83;21455;-60
2022/01/24 09:46:23;;;;;;;16.32;6.05;;;;;;;-2.95;84.61;146942.37;1696181;81;21649;-58
2022/01/24 09:48:50;;;;;;;18.35;6.45;;;;;;;-2.99;85.11;146932.06;1694162;82;21181;-59
2022/01/24 09:51:19;;;;;;;19.02;7.55;;;;;;;-3.01;85.86;146926.94;1668304;84;21664;-60
2022/01/24 09:53:46;;;;;;;15.32;6.05;;;;;;;-3.00;88.35;146929.50;1694089;83;21647;-59
2022/01/24 09:56:12;;;;;;;15.58;6.40;;;;;;;-2.95;88.63;146942.37;1693140;82;21060;-59
2022/01/24 09:58:39;;;;;;;21.45;6.87;;;;;;;-2.94;86.94;146943.63;1690070;83;21798;-58
2022/01/24 10:01:07;;;;;;;20.85;7.15;;;;;;;-2.94;87.91;146944.94;1694259;82;21120;-59
2022/01/24 10:03:35;;;;;;;14.55;6.28;;;;;;;-2.98;87.59;146934.67;1698175;83;21733;-59
2022/01/24 10:06:03;;;;;;;17.70;5.15;;;;;;;-3.02;87.95;146924.36;1697223;82;21399;-59
2022/01/24 10:08:32;;;;;;;13.58;5.95;;;;;;;-3.07;88.46;146912.84;1693119;82;21130;-60
2022/01/24 10:11:04;;;;;;;19.25;7.50;;;;;;;-3.12;88.80;146898.72;1693464;82;21109;-59
2022/01/24 10:16:43;;;;;;;20.30;8.25;;;;;;;-3.13;91.97;146896.14;1693212;82;21797;-60
2022/01/24 10:19:14;;;;;;;27.32;8.75;;;;;;;-3.13;92.28;146896.14;1691333;82;21399;-59
2022/01/24 10:21:49;;;;;;;13.13;6.45;;;;;;;-3.10;92.74;146903.84;1694240;82;21484;-60
2022/01/24 10:24:43;;;;;;;15.15;6.37;;;;;;;-3.06;91.14;146915.41;1701370;82;21027;-60
2022/01/24 10:27:23;;;;;;;16.55;6.30;;;;;;;-2.98;91.80;146933.36;1695473;82;21142;-60
2022/01/24 10:30:04;;;;;;;16.50;6.08;;;;;;;-2.97;90.52;146937.23;1691284;82;21927;-60
2022/01/24 10:32:41;;;;;;;13.15;5.45;;;;;;;-3.03;88.63;146921.80;1690678;82;21388;-58
2022/01/24 10:35:36;;;;;;;11.15;5.75;;;;;;;-3.06;89.33;146915.41;1692039;83;21048;-60
2022/01/24 10:38:39;;;;;;;16.90;6.12;;;;;;;-3.10;89.24;146903.84;1696181;82;21246;-61
2022/01/24 10:43:37;;;;;;;16.75;7.17;;;;;;;-3.21;90.71;146876.89;1699134;82;21155;-60
2022/01/24 10:46:04;;;;;;;15.40;6.97;;;;;;;-3.22;93.00;146875.58;1697881;81;21108;-61
2022/01/24 10:48:39;;;;;;;20.95;7.03;;;;;;;-3.17;95.19;146887.16;1685122;83;21139;-61
2022/01/24 10:51:18;;;;;;;17.52;6.10;;;;;;;-3.13;94.73;146896.14;1674894;83;21608;-60
2022/01/24 10:53:52;;;;;;;15.35;6.80;;;;;;;-3.15;95.39;146892.28;1680351;83;21096;-61
2022/01/24 10:56:41;;;;;;;19.30;7.12;;;;;;;-3.17;96.32;146888.45;1713292;81;21099;-57
2022/01/24 10:59:16;;;;;;;15.88;5.53;;;;;;;-3.21;95.50;146878.14;1712149;81;21047;-58
2022/01/24 11:01:46;;;;;;;20.15;8.20;;;;;;;-3.30;94.74;146855.06;1707186;81;21046;-58
2022/01/24 11:04:14;;;;;;;27.50;9.20;;;;;;;-3.34;96.43;146844.81;1708294;81;21044;-58
2022/01/24 11:07:22;;;;;;;37.93;6.47;;;;;;;-3.34;97.78;146844.81;1707863;81;21197;-58
2022/01/24 11:09:49;;;;;;;19.48;7.85;;;;;;;-3.34;97.44;146844.81;1694013;82;22317;-58
2022/01/24 11:12:18;;;;;;;19.20;7.00;;;;;;;-3.41;96.79;146826.86;1683183;81;21105;-59
2022/01/24 11:14:45;;;;;;;19.02;7.55;;;;;;;-3.48;97.55;146810.17;1709068;81;21053;-57
2022/01/24 11:17:19;;;;;;;18.35;8.80;;;;;;;-3.50;97.96;146806.30;1711114;81;21116;-57
2022/01/24 11:19:49;;;;;;;18.52;6.70;;;;;;;-3.48;99.21;146810.17;1709018;81;21061;-58
2022/01/24 11:22:22;;;;;;;18.95;6.83;;;;;;;-3.43;99.23;146822.98;1704315;81;21398;-58
2022/01/24 11:25:08;;;;;;;19.65;7.58;;;;;;;-3.45;98.75;146819.12;1690644;81;21051;-57
2022/01/24 11:27:41;;;;;;;16.23;7.25;;;;;;;-3.45;99.54;146819.12;1706713;81;21076;-57
2022/01/24 11:30:14;;;;;;;25.67;10.27;;;;;;;-3.48;99.96;146811.42;1707317;81;21140;-58
2022/01/24 11:33:01;;;;;;;30.92;9.08;;;;;;;-3.48;100.00;146810.17;1703437;81;21448;-57
2022/01/24 11:35:41;;;;;;;21.70;8.58;;;;;;;-3.49;100.00;146807.59;1696706;81;21210;-57
2022/01/24 11:38:31;;;;;;;39.05;13.38;;;;;;;-3.48;100.00;146810.17;1713299;81;21438;-58
2022/01/24 11:41:07;;;;;;;20.30;8.20;;;;;;;-3.47;100.00;146813.98;1690288;82;20895;-58
2022/01/24 11:43:38;;;;;;;17.23;7.12;;;;;;;-3.48;100.00;146811.42;1645001;84;21277;-59
2022/01/24 11:46:08;;;;;;;20.65;7.85;;;;;;;-3.49;100.00;146808.86;1672330;84;21606;-58
2022/01/24 11:48:37;;;;;;;35.80;15.35;;;;;;;-3.52;100.00;146801.17;1643963;84;21339;-58
2022/01/24 11:51:12;;;;;;;13.98;7.37;;;;;;;-3.57;100.00;146788.34;1695523;82;21422;-57
2022/01/24 11:53:43;;;;;;;28.57;9.58;;;;;;;-3.63;100.00;146774.22;1694757;83;21102;-58
2022/01/24 11:56:26;;;;;;;94.03;37.83;;;;;;;-3.67;100.00;146763.97;1695481;81;21068;-58
2022/01/24 11:59:22;;;;;;;213.52;72.35;;;;;;;-3.65;100.00;146767.78;1695072;81;21451;-59
2022/01/24 12:01:59;;;;;;;25.02;10.40;;;;;;;-3.65;100.00;146767.78;1618135;85;21866;-58
2022/01/24 12:04:54;;;;;;;29.10;12.18;;;;;;;-3.65;100.00;146767.78;1680004;82;21527;-58
2022/01/24 12:07:31;;;;;;;239.25;84.15;;;;;;;-3.76;100.00;146742.16;1676409;82;21581;-57
2022/01/24 12:10:34;;;;;;;24.90;10.40;;;;;;;-3.79;100.00;146734.47;1688306;82;21087;-58
2022/01/24 12:13:13;;;;;;;19.92;8.95;;;;;;;-3.77;100.00;146739.59;1685039;83;21640;-58
2022/01/24 12:15:45;;;;;;;12.82;5.30;;;;;;;-3.77;100.00;146738.28;1694629;83;21755;-58
2022/01/24 12:18:20;;;;;;;24.10;8.23;;;;;;;-3.80;100.00;146731.91;1690384;82;21123;-56
2022/01/24 12:20:50;;;;;;;16.90;6.95;;;;;;;-3.80;100.00;146731.91;1689743;83;21062;-59
2022/01/24 12:23:28;;;;;;;18.37;8.70;;;;;;;-3.82;100.00;146726.78;1692265;82;21077;-57
2022/01/24 12:26:05;;;;;;;24.60;9.68;;;;;;;-3.85;100.00;146719.08;1689139;83;21108;-59
2022/01/24 12:28:48;;;;;;;32.50;14.55;;;;;;;-3.81;100.00;146729.34;1695825;81;21137;-58
2022/01/24 12:31:45;;;;;;;61.05;23.90;;;;;;;-3.91;100.00;146704.95;1693928;82;21697;-61
2022/01/24 12:34:37;;;;;;;30.20;12.95;;;;;;;-3.85;100.00;146719.08;1696519;81;21057;-59
2022/01/24 12:37:12;;;;;;;42.08;16.20;;;;;;;-3.76;100.00;146742.16;1689601;81;21751;-59
2022/01/24 12:39:50;;;;;;;83.12;32.15;;;;;;;-3.84;100.00;146721.64;1691267;82;21038;-58
2022/01/24 12:42:33;;;;;;;24.05;7.60;;;;;;;-3.88;100.00;146711.34;1683452;82;21779;-58
2022/01/24 12:47:43;;;;;;;20.48;7.92;;;;;;;-3.97;100.00;146688.28;1707722;81;21079;-59
2022/01/24 12:50:10;;;;;;;60.60;22.37;;;;;;;-3.99;100.00;146683.16;1703948;81;21079;-59
2022/01/24 12:52:39;;;;;;;17.15;7.47;;;;;;;-3.95;100.00;146693.41;1720814;81;21667;-59
2022/01/24 12:55:08;;;;;;;38.30;12.33;;;;;;;-3.98;100.00;146685.72;1709633;81;21686;-60
2022/01/24 12:57:42;;;;;;;39.25;15.05;;;;;;;-3.99;100.00;146683.16;1707387;81;21039;-59
2022/01/24 13:00:15;;;;;;;201.63;68.03;;;;;;;-3.95;100.00;146693.41;1710243;81;21082;-58
2022/01/24 13:02:42;;;;;;;118.40;43.08;;;;;;;-3.94;100.00;146695.97;1712003;81;21063;-60
2022/01/24 13:05:14;;;;;;;112.50;41.50;;;;;;;-3.96;100.00;146690.84;1711550;81;21510;-59